sensor_id;sensor_type;location;lat;lon;timestamp;pressure;altitude;pressure_sealevel;temperature;humidity
42705;BME280;28342;42.594;23.414;2022-10-22T00:02:26;95342.56;;;7.47;74.55
42705;BME280;28342;42.594;23.414;2022-10-22T00:04:52;95368.44;;;7.61;74.03
42705;BME280;28342;42.594;23.414;2022-10-22T00:07:19;95356.34;;;7.39;74.90
42705;BME280;28342;42.594;23.414;2022-10-22T00:09:45;95363.69;;;7.47;74.84
42705;BME280;28342;42.594;23.414;2022-10-22T00:12:14;95362.63;;;7.48;75.16
42705;BME280;28342;42.594;23.414;2022-10-22T00:14:40;95340.47;;;7.34;74.46
42705;BME280;28342;42.594;23.414;2022-10-22T00:17:06;95372.69;;;7.36;74.03
42705;BME280;28342;42.594;23.414;2022-10-22T00:19:31;95380.63;;;7.21;73.90
42705;BME280;28342;42.594;23.414;2022-10-22T00:21:58;95366.34;;;7.12;74.44
42705;BME280;28342;42.594;23.414;2022-10-22T00:24:25;95366.91;;;7.09;74.66
42705;BME280;28342;42.594;23.414;2022-10-22T00:26:50;95366.34;;;7.02;75.56
42705;BME280;28342;42.594;23.414;2022-10-22T00:29:16;95373.75;;;7.05;75.10
42705;BME280;28342;42.594;23.414;2022-10-22T00:31:45;95374.78;;;6.88;76.00
42705;BME280;28342;42.594;23.414;2022-10-22T00:34:18;95345.75;;;6.68;76.38
42705;BME280;28342;42.594;23.414;2022-10-22T00:36:45;95352.06;;;6.72;76.32
42705;BME280;28342;42.594;23.414;2022-10-22T00:39:12;95357.38;;;6.82;76.48
42705;BME280;28342;42.594;23.414;2022-10-22T00:41:44;95353.94;;;6.82;76.46
42705;BME280;28342;42.594;23.414;2022-10-22T00:47:14;95334.97;;;6.90;76.15
42705;BME280;28342;42.594;23.414;2022-10-22T00:49:40;95347.38;;;7.05;75.96
42705;BME280;28342;42.594;23.414;2022-10-22T00:52:06;95346.31;;;7.16;75.45
42705;BME280;28342;42.594;23.414;2022-10-22T00:54:32;95338.91;;;6.98;76.11
42705;BME280;28342;42.594;23.414;2022-10-22T00:56:59;95342.06;;;7.00;75.96
42705;BME280;28342;42.594;23.414;2022-10-22T00:59:26;95327.31;;;6.94;76.24
42705;BME280;28342;42.594;23.414;2022-10-22T01:01:51;95355.53;;;7.08;76.08
42705;BME280;28342;42.594;23.414;2022-10-22T01:04:18;95355.00;;;7.01;76.73
42705;BME280;28342;42.594;23.414;2022-10-22T01:06:44;95352.63;;;6.95;77.07
42705;BME280;28342;42.594;23.414;2022-10-22T01:12:02;95325.19;;;6.75;77.86
42705;BME280;28342;42.594;23.414;2022-10-22T01:14:40;95320.97;;;6.74;77.92
42705;BME280;28342;42.594;23.414;2022-10-22T01:19:53;95319.63;;;6.72;77.77
42705;BME280;28342;42.594;23.414;2022-10-22T01:30:09;95281.94;;;6.66;77.50
42705;BME280;28342;42.594;23.414;2022-10-22T01:32:49;95309.38;;;6.96;77.37
42705;BME280;28342;42.594;23.414;2022-10-22T01:35:23;95309.13;;;6.92;77.55
42705;BME280;28342;42.594;23.414;2022-10-22T01:37:53;95287.72;;;6.88;77.44
42705;BME280;28342;42.594;23.414;2022-10-22T01:40:22;95286.69;;;6.95;77.65
42705;BME280;28342;42.594;23.414;2022-10-22T01:42:58;95287.75;;;6.99;77.34
42705;BME280;28342;42.594;23.414;2022-10-22T01:45:25;95278.78;;;7.10;77.12
42705;BME280;28342;42.594;23.414;2022-10-22T02:01:25;95270.88;;;6.95;78.66
42705;BME280;28342;42.594;23.414;2022-10-22T02:04:02;95291.16;;;7.14;78.40
42705;BME280;28342;42.594;23.414;2022-10-22T02:06:31;95292.22;;;7.08;78.58
42705;BME280;28342;42.594;23.414;2022-10-22T02:08:59;95291.97;;;7.05;78.40
42705;BME280;28342;42.594;23.414;2022-10-22T02:11:26;95289.84;;;7.02;78.70
42705;BME280;28342;42.594;23.414;2022-10-22T02:13:55;95289.84;;;6.86;78.66
42705;BME280;28342;42.594;23.414;2022-10-22T02:16:31;95293.00;;;6.88;78.31
42705;BME280;28342;42.594;23.414;2022-10-22T02:19:00;95271.16;;;6.78;77.69
42705;BME280;28342;42.594;23.414;2022-10-22T02:21:27;95304.09;;;7.01;77.31
42705;BME280;28342;42.594;23.414;2022-10-22T02:23:53;95299.88;;;7.00;76.79
42705;BME280;28342;42.594;23.414;2022-10-22T02:26:26;95291.44;;;6.77;76.77
42705;BME280;28342;42.594;23.414;2022-10-22T02:31:37;95285.91;;;6.69;77.36
42705;BME280;28342;42.594;23.414;2022-10-22T02:34:08;95278.78;;;6.69;77.07
42705;BME280;28342;42.594;23.414;2022-10-22T02:36:36;95266.13;;;6.71;76.23
42705;BME280;28342;42.594;23.414;2022-10-22T02:39:02;95277.19;;;6.68;76.76
42705;BME280;28342;42.594;23.414;2022-10-22T02:41:29;95281.69;;;6.78;76.37
42705;BME280;28342;42.594;23.414;2022-10-22T02:43:55;95273.78;;;6.63;76.79
42705;BME280;28342;42.594;23.414;2022-10-22T02:46:22;95292.47;;;6.56;77.01
42705;BME280;28342;42.594;23.414;2022-10-22T02:48:47;95310.41;;;6.69;76.34
42705;BME280;28342;42.594;23.414;2022-10-22T02:51:13;95293.53;;;6.65;76.47
42705;BME280;28342;42.594;23.414;2022-10-22T02:53:38;95298.81;;;6.65;76.52
42705;BME280;28342;42.594;23.414;2022-10-22T02:56:04;95289.03;;;6.55;76.25
42705;BME280;28342;42.594;23.414;2022-10-22T02:58:30;95287.19;;;6.51;76.60
42705;BME280;28342;42.594;23.414;2022-10-22T03:00:55;95313.06;;;6.69;76.46
42705;BME280;28342;42.594;23.414;2022-10-22T03:03:22;95321.50;;;6.76;76.09
42705;BME280;28342;42.594;23.414;2022-10-22T03:05:49;95314.63;;;6.65;76.20
42705;BME280;28342;42.594;23.414;2022-10-22T03:08:15;95316.22;;;6.61;77.13
42705;BME280;28342;42.594;23.414;2022-10-22T03:10:40;95324.63;;;6.58;77.71
42705;BME280;28342;42.594;23.414;2022-10-22T03:13:06;95319.13;;;6.65;78.04
42705;BME280;28342;42.594;23.414;2022-10-22T03:15:32;95316.22;;;6.66;77.15
42705;BME280;28342;42.594;23.414;2022-10-22T03:17:57;95315.72;;;6.74;77.16
42705;BME280;28342;42.594;23.414;2022-10-22T03:20:23;95276.41;;;6.47;77.10
42705;BME280;28342;42.594;23.414;2022-10-22T03:22:48;95293.00;;;6.48;77.36
42705;BME280;28342;42.594;23.414;2022-10-22T03:25:18;95313.03;;;6.54;78.05
42705;BME280;28342;42.594;23.414;2022-10-22T03:27:46;95304.88;;;6.50;77.57
42705;BME280;28342;42.594;23.414;2022-10-22T03:30:12;95304.59;;;6.52;77.97
42705;BME280;28342;42.594;23.414;2022-10-22T03:32:37;95303.53;;;6.58;77.61
42705;BME280;28342;42.594;23.414;2022-10-22T03:35:03;95291.13;;;6.33;78.56
42705;BME280;28342;42.594;23.414;2022-10-22T03:37:30;95288.75;;;6.42;78.64
42705;BME280;28342;42.594;23.414;2022-10-22T03:39:56;95287.19;;;6.51;78.69
42705;BME280;28342;42.594;23.414;2022-10-22T03:42:22;95293.53;;;6.55;78.80
42705;BME280;28342;42.594;23.414;2022-10-22T03:44:48;95290.91;;;6.60;78.78
42705;BME280;28342;42.594;23.414;2022-10-22T03:47:13;95269.53;;;6.36;78.49
42705;BME280;28342;42.594;23.414;2022-10-22T03:49:39;95273.22;;;6.35;79.57
42705;BME280;28342;42.594;23.414;2022-10-22T03:52:12;95272.44;;;6.45;79.56
42705;BME280;28342;42.594;23.414;2022-10-22T03:54:38;95279.78;;;6.43;79.85
42705;BME280;28342;42.594;23.414;2022-10-22T03:57:04;95276.13;;;6.49;79.78
42705;BME280;28342;42.594;23.414;2022-10-22T03:59:38;95280.88;;;6.57;80.08
42705;BME280;28342;42.594;23.414;2022-10-22T04:02:04;95277.72;;;6.55;79.76
42705;BME280;28342;42.594;23.414;2022-10-22T04:04:30;95277.69;;;6.35;81.07
42705;BME280;28342;42.594;23.414;2022-10-22T04:06:57;95303.00;;;6.41;80.78
42705;BME280;28342;42.594;23.414;2022-10-22T04:09:23;95287.72;;;6.48;79.99
42705;BME280;28342;42.594;23.414;2022-10-22T04:11:48;95272.41;;;6.35;79.68
42705;BME280;28342;42.594;23.414;2022-10-22T04:14:14;95289.31;;;6.49;79.13
42705;BME280;28342;42.594;23.414;2022-10-22T04:16:40;95292.97;;;6.33;79.67
42705;BME280;28342;42.594;23.414;2022-10-22T04:19:08;95289.81;;;6.36;79.77
42705;BME280;28342;42.594;23.414;2022-10-22T04:21:34;95272.16;;;6.31;80.50
42705;BME280;28342;42.594;23.414;2022-10-22T04:24:00;95251.09;;;6.31;80.55
42705;BME280;28342;42.594;23.414;2022-10-22T04:26:26;95245.03;;;6.31;81.45
42705;BME280;28342;42.594;23.414;2022-10-22T04:28:52;95289.31;;;6.49;82.30
42705;BME280;28342;42.594;23.414;2022-10-22T04:31:20;95271.91;;;6.53;81.51
42705;BME280;28342;42.594;23.414;2022-10-22T04:33:46;95242.38;;;6.31;80.76
42705;BME280;28342;42.594;23.414;2022-10-22T04:36:17;95275.59;;;6.47;80.73
42705;BME280;28342;42.594;23.414;2022-10-22T04:38:43;95247.13;;;6.39;81.96
42705;BME280;28342;42.594;23.414;2022-10-22T04:41:14;95268.75;;;6.66;81.73
42705;BME280;28342;42.594;23.414;2022-10-22T04:43:40;95257.69;;;6.59;81.00
42705;BME280;28342;42.594;23.414;2022-10-22T04:46:06;95271.94;;;6.78;80.59
42705;BME280;28342;42.594;23.414;2022-10-22T04:48:37;95271.16;;;6.78;80.92
42705;BME280;28342;42.594;23.414;2022-10-22T04:51:05;95265.09;;;6.77;80.63
42705;BME280;28342;42.594;23.414;2022-10-22T04:53:31;95286.69;;;6.95;80.77
42705;BME280;28342;42.594;23.414;2022-10-22T04:58:33;95252.44;;;6.89;80.86
42705;BME280;28342;42.594;23.414;2022-10-22T05:00:58;95272.47;;;7.06;80.45
42705;BME280;28342;42.594;23.414;2022-10-22T05:03:24;95274.81;;;7.07;80.74
42705;BME280;28342;42.594;23.414;2022-10-22T05:05:50;95288.00;;;7.12;80.10
42705;BME280;28342;42.594;23.414;2022-10-22T05:08:16;95292.75;;;7.15;79.38
42705;BME280;28342;42.594;23.414;2022-10-22T05:10:41;95291.94;;;7.15;80.32
42705;BME280;28342;42.594;23.414;2022-10-22T05:13:07;95289.88;;;7.07;80.65
42705;BME280;28342;42.594;23.414;2022-10-22T05:15:33;95277.19;;;6.99;81.08
42705;BME280;28342;42.594;23.414;2022-10-22T05:17:58;95274.03;;;7.07;80.36
42705;BME280;28342;42.594;23.414;2022-10-22T05:20:23;95301.72;;;7.25;80.04
42705;BME280;28342;42.594;23.414;2022-10-22T05:22:51;95307.78;;;7.25;80.03
42705;BME280;28342;42.594;23.414;2022-10-22T05:25:17;95320.72;;;7.37;79.79
42705;BME280;28342;42.594;23.414;2022-10-22T05:27:42;95312.25;;;7.30;80.46
42705;BME280;28342;42.594;23.414;2022-10-22T05:30:08;95323.63;;;7.35;79.41
42705;BME280;28342;42.594;23.414;2022-10-22T05:32:49;95317.81;;;7.28;78.44
42705;BME280;28342;42.594;23.414;2022-10-22T05:35:16;95314.34;;;7.33;78.08
42705;BME280;28342;42.594;23.414;2022-10-22T05:37:42;95323.34;;;7.27;78.23
42705;BME280;28342;42.594;23.414;2022-10-22T05:40:59;95294.06;;;7.18;78.42
42705;BME280;28342;42.594;23.414;2022-10-22T05:43:25;95311.44;;;7.34;77.89
42705;BME280;28342;42.594;23.414;2022-10-22T05:45:50;95305.16;;;7.25;78.31
42705;BME280;28342;42.594;23.414;2022-10-22T05:48:18;95319.13;;;7.36;78.27
42705;BME280;28342;42.594;23.414;2022-10-22T05:50:44;95326.47;;;7.49;78.06
42705;BME280;28342;42.594;23.414;2022-10-22T05:53:16;95310.94;;;7.32;78.53
42705;BME280;28342;42.594;23.414;2022-10-22T05:55:42;95311.47;;;7.39;78.91
42705;BME280;28342;42.594;23.414;2022-10-22T05:58:09;95303.53;;;7.39;78.94
42705;BME280;28342;42.594;23.414;2022-10-22T06:00:36;95309.34;;;7.41;78.36
42705;BME280;28342;42.594;23.414;2022-10-22T06:03:06;95316.22;;;7.37;79.17
42705;BME280;28342;42.594;23.414;2022-10-22T06:05:35;95316.72;;;7.44;79.46
42705;BME280;28342;42.594;23.414;2022-10-22T06:08:01;95318.81;;;7.53;79.16
42705;BME280;28342;42.594;23.414;2022-10-22T06:10:27;95316.97;;;7.58;79.34
42705;BME280;28342;42.594;23.414;2022-10-22T06:12:55;95291.97;;;7.05;79.38
42705;BME280;28342;42.594;23.414;2022-10-22T06:15:21;95318.84;;;7.42;78.89
42705;BME280;28342;42.594;23.414;2022-10-22T06:18:05;95301.97;;;7.38;79.74
42705;BME280;28342;42.594;23.414;2022-10-22T06:20:50;95311.38;;;7.65;79.97
42705;BME280;28342;42.594;23.414;2022-10-22T06:23:16;95313.22;;;7.74;79.76
42705;BME280;28342;42.594;23.414;2022-10-22T06:25:41;95298.19;;;7.65;79.71
42705;BME280;28342;42.594;23.414;2022-10-22T06:28:10;95314.28;;;7.73;78.90
42705;BME280;28342;42.594;23.414;2022-10-22T06:34:09;95331.34;;;7.96;77.73
42705;BME280;28342;42.594;23.414;2022-10-22T06:36:36;95330.31;;;7.97;78.52
42705;BME280;28342;42.594;23.414;2022-10-22T06:39:02;95327.34;;;8.09;78.64
42705;BME280;28342;42.594;23.414;2022-10-22T06:41:28;95299.91;;;8.05;77.78
42705;BME280;28342;42.594;23.414;2022-10-22T06:43:54;95299.34;;;8.13;77.72
42705;BME280;28342;42.594;23.414;2022-10-22T06:46:22;95335.72;;;8.31;77.71
42705;BME280;28342;42.594;23.414;2022-10-22T06:48:53;95301.69;;;8.20;77.60
42705;BME280;28342;42.594;23.414;2022-10-22T06:51:19;95325.38;;;8.45;77.46
42705;BME280;28342;42.594;23.414;2022-10-22T06:53:48;95325.63;;;8.49;77.12
42705;BME280;28342;42.594;23.414;2022-10-22T06:56:16;95306.38;;;8.33;77.09
42705;BME280;28342;42.594;23.414;2022-10-22T06:58:42;95327.41;;;8.58;77.02
42705;BME280;28342;42.594;23.414;2022-10-22T07:01:13;95296.72;;;8.57;77.08
42705;BME280;28342;42.594;23.414;2022-10-22T07:03:40;95310.38;;;8.75;76.73
42705;BME280;28342;42.594;23.414;2022-10-22T07:06:08;95315.06;;;8.83;76.79
42705;BME280;28342;42.594;23.414;2022-10-22T07:08:35;95306.06;;;8.84;76.33
42705;BME280;28342;42.594;23.414;2022-10-22T07:11:10;95306.06;;;8.84;76.66
42705;BME280;28342;42.594;23.414;2022-10-22T07:13:36;95309.38;;;8.99;75.72
42705;BME280;28342;42.594;23.414;2022-10-22T07:16:03;95321.16;;;9.17;75.89
42705;BME280;28342;42.594;23.414;2022-10-22T07:18:31;95317.91;;;9.25;75.35
42705;BME280;28342;42.594;23.414;2022-10-22T07:20:56;95310.16;;;9.34;74.78
42705;BME280;28342;42.594;23.414;2022-10-22T07:23:22;95317.16;;;9.49;74.12
42705;BME280;28342;42.594;23.414;2022-10-22T07:25:48;95313.06;;;9.62;73.89
42705;BME280;28342;42.594;23.414;2022-10-22T07:28:13;95309.53;;;9.71;73.54
42705;BME280;28342;42.594;23.414;2022-10-22T07:30:39;95312.13;;;9.76;73.07
42705;BME280;28342;42.594;23.414;2022-10-22T07:33:05;95273.97;;;9.53;72.52
42705;BME280;28342;42.594;23.414;2022-10-22T07:35:31;95315.38;;;9.92;72.18
42705;BME280;28342;42.594;23.414;2022-10-22T07:38:01;95278.19;;;9.78;72.38
42705;BME280;28342;42.594;23.414;2022-10-22T07:40:30;95253.25;;;9.79;72.22
42705;BME280;28342;42.594;23.414;2022-10-22T07:43:01;95282.13;;;10.05;71.45
42705;BME280;28342;42.594;23.414;2022-10-22T07:45:27;95302.38;;;10.38;71.36
42705;BME280;28342;42.594;23.414;2022-10-22T07:47:52;95286.13;;;10.45;71.47
42705;BME280;28342;42.594;23.414;2022-10-22T07:50:18;95259.41;;;10.41;71.12
42705;BME280;28342;42.594;23.414;2022-10-22T07:52:44;95272.44;;;10.75;71.32
42705;BME280;28342;42.594;23.414;2022-10-22T07:55:11;95299.19;;;11.12;70.92
42705;BME280;28342;42.594;23.414;2022-10-22T07:57:38;95277.78;;;11.22;68.86
42705;BME280;28342;42.594;23.414;2022-10-22T08:00:05;95269.94;;;11.44;69.33
42705;BME280;28342;42.594;23.414;2022-10-22T08:02:32;95277.31;;;11.80;69.19
42705;BME280;28342;42.594;23.414;2022-10-22T08:04:59;95254.84;;;11.86;68.41
42705;BME280;28342;42.594;23.414;2022-10-22T08:07:25;95265.84;;;12.20;67.63
42705;BME280;28342;42.594;23.414;2022-10-22T08:09:56;95283.44;;;12.44;67.56
42705;BME280;28342;42.594;23.414;2022-10-22T08:12:22;95264.56;;;12.54;66.14
42705;BME280;28342;42.594;23.414;2022-10-22T08:14:48;95280.59;;;12.99;65.91
42705;BME280;28342;42.594;23.414;2022-10-22T08:17:14;95267.66;;;13.06;63.64
42705;BME280;28342;42.594;23.414;2022-10-22T08:19:41;95242.63;;;13.15;62.64
42705;BME280;28342;42.594;23.414;2022-10-22T08:22:10;95249.56;;;13.48;63.04
42705;BME280;28342;42.594;23.414;2022-10-22T08:24:35;95261.50;;;13.90;61.41
42705;BME280;28342;42.594;23.414;2022-10-22T08:27:00;95264.53;;;14.05;60.63
42705;BME280;28342;42.594;23.414;2022-10-22T08:29:26;95275.09;;;14.36;60.25
42705;BME280;28342;42.594;23.414;2022-10-22T08:31:52;95267.47;;;14.52;59.61
42705;BME280;28342;42.594;23.414;2022-10-22T08:34:20;95240.63;;;14.57;58.88
42705;BME280;28342;42.594;23.414;2022-10-22T08:36:46;95262.91;;;14.96;59.33
42705;BME280;28342;42.594;23.414;2022-10-22T08:39:13;95243.91;;;15.06;57.22
42705;BME280;28342;42.594;23.414;2022-10-22T08:42:06;95260.63;;;15.41;57.46
42705;BME280;28342;42.594;23.414;2022-10-22T08:49:52;95282.97;;;16.01;54.93
42705;BME280;28342;42.594;23.414;2022-10-22T08:52:19;95256.84;;;15.98;54.81
42705;BME280;28342;42.594;23.414;2022-10-22T08:54:56;95259.69;;;16.22;54.42
42705;BME280;28342;42.594;23.414;2022-10-22T08:57:35;95255.63;;;16.46;54.18
42705;BME280;28342;42.594;23.414;2022-10-22T09:03:02;95267.69;;;16.52;51.56
42705;BME280;28342;42.594;23.414;2022-10-22T09:08:13;95260.63;;;16.77;51.86
42705;BME280;28342;42.594;23.414;2022-10-22T09:10:45;95242.78;;;16.81;52.05
42705;BME280;28342;42.594;23.414;2022-10-22T09:13:17;95248.06;;;16.89;51.02
42705;BME280;28342;42.594;23.414;2022-10-22T09:15:46;95250.16;;;17.05;51.13
42705;BME280;28342;42.594;23.414;2022-10-22T09:18:38;95259.59;;;17.23;51.05
42705;BME280;28342;42.594;23.414;2022-10-22T09:21:17;95252.25;;;17.32;51.46
42705;BME280;28342;42.594;23.414;2022-10-22T09:33:59;95208.72;;;17.47;50.01
42705;BME280;28342;42.594;23.414;2022-10-22T09:40:55;95232.78;;;17.68;47.77
42705;BME280;28342;42.594;23.414;2022-10-22T09:46:51;95228.41;;;17.63;48.44
42705;BME280;28342;42.594;23.414;2022-10-22T09:49:35;95188.56;;;17.41;48.74
42705;BME280;28342;42.594;23.414;2022-10-22T09:52:37;95164.53;;;17.45;49.27
42705;BME280;28342;42.594;23.414;2022-10-22T09:55:26;95154.59;;;17.45;49.45
42705;BME280;28342;42.594;23.414;2022-10-22T10:01:02;95149.25;;;17.57;49.19
42705;BME280;28342;42.594;23.414;2022-10-22T10:03:42;95161.44;;;17.67;49.19
42705;BME280;28342;42.594;23.414;2022-10-22T10:06:20;95158.41;;;17.56;48.52
42705;BME280;28342;42.594;23.414;2022-10-22T10:08:59;95151.47;;;17.55;48.92
42705;BME280;28342;42.594;23.414;2022-10-22T10:15:19;95196.88;;;17.73;49.45
42705;BME280;28342;42.594;23.414;2022-10-22T10:20:55;95152.16;;;17.52;50.34
42705;BME280;28342;42.594;23.414;2022-10-22T10:27:06;95192.84;;;17.54;49.75
42705;BME280;28342;42.594;23.414;2022-10-22T10:30:17;95189.34;;;17.42;49.86
42705;BME280;28342;42.594;23.414;2022-10-22T10:32:58;95180.84;;;17.40;50.42
42705;BME280;28342;42.594;23.414;2022-10-22T10:35:49;95170.25;;;17.43;50.66
42705;BME280;28342;42.594;23.414;2022-10-22T10:42:24;95118.56;;;16.85;49.23
42705;BME280;28342;42.594;23.414;2022-10-22T10:50:34;95099.56;;;16.90;50.30
42705;BME280;28342;42.594;23.414;2022-10-22T11:07:51;95114.38;;;17.33;49.96
42705;BME280;28342;42.594;23.414;2022-10-22T11:14:22;95079.53;;;17.33;50.15
42705;BME280;28342;42.594;23.414;2022-10-22T11:17:40;95069.69;;;17.37;50.26
42705;BME280;28342;42.594;23.414;2022-10-22T11:20:49;95057.72;;;17.47;50.28
42705;BME280;28342;42.594;23.414;2022-10-22T11:24:16;95045.09;;;17.47;49.65
42705;BME280;28342;42.594;23.414;2022-10-22T11:32:32;95028.53;;;17.70;50.71
42705;BME280;28342;42.594;23.414;2022-10-22T11:35:35;95059.53;;;18.07;49.72
42705;BME280;28342;42.594;23.414;2022-10-22T11:42:05;95014.22;;;18.06;50.27
42705;BME280;28342;42.594;23.414;2022-10-22T11:48:19;95036.06;;;18.48;48.88
42705;BME280;28342;42.594;23.414;2022-10-22T11:51:27;95008.91;;;18.37;48.27
42705;BME280;28342;42.594;23.414;2022-10-22T11:59:49;95032.53;;;18.88;48.36
42705;BME280;28342;42.594;23.414;2022-10-22T12:11:02;95027.72;;;19.13;47.67
42705;BME280;28342;42.594;23.414;2022-10-22T12:19:45;94988.03;;;19.06;46.76
42705;BME280;28342;42.594;23.414;2022-10-22T12:22:34;95002.66;;;19.24;46.90
42705;BME280;28342;42.594;23.414;2022-10-22T12:25:36;94988.91;;;19.29;46.24
42705;BME280;28342;42.594;23.414;2022-10-22T12:28:12;94963.19;;;19.13;46.92
42705;BME280;28342;42.594;23.414;2022-10-22T12:31:20;94983.66;;;19.33;46.16
42705;BME280;28342;42.594;23.414;2022-10-22T12:33:59;94959.72;;;19.12;46.11
42705;BME280;28342;42.594;23.414;2022-10-22T12:39:39;94956.34;;;19.15;45.32
42705;BME280;28342;42.594;23.414;2022-10-22T12:43:10;94960.84;;;19.11;45.49
42705;BME280;28342;42.594;23.414;2022-10-22T12:46:21;94964.16;;;19.20;46.81
42705;BME280;28342;42.594;23.414;2022-10-22T12:49:18;94980.59;;;19.34;47.35
42705;BME280;28342;42.594;23.414;2022-10-22T12:52:06;95001.06;;;19.55;47.69
42705;BME280;28342;42.594;23.414;2022-10-22T12:59:02;94993.34;;;19.37;45.42
42705;BME280;28342;42.594;23.414;2022-10-22T13:01:55;94987.00;;;19.46;45.24
42705;BME280;28342;42.594;23.414;2022-10-22T13:08:22;94968.44;;;19.40;47.09
42705;BME280;28342;42.594;23.414;2022-10-22T13:10:52;94957.53;;;19.33;47.05
42705;BME280;28342;42.594;23.414;2022-10-22T13:13:45;94972.31;;;19.43;47.99
42705;BME280;28342;42.594;23.414;2022-10-22T13:18:47;94940.88;;;19.28;46.66
42705;BME280;28342;42.594;23.414;2022-10-22T13:21:35;94959.22;;;19.41;46.60
42705;BME280;28342;42.594;23.414;2022-10-22T13:24:22;94956.81;;;19.36;47.05
42705;BME280;28342;42.594;23.414;2022-10-22T13:27:03;94911.75;;;19.14;46.66
42705;BME280;28342;42.594;23.414;2022-10-22T13:29:28;94934.72;;;19.27;46.50
42705;BME280;28342;42.594;23.414;2022-10-22T13:31:57;94962.84;;;19.49;46.06
42705;BME280;28342;42.594;23.414;2022-10-22T13:34:26;94929.84;;;19.33;46.85
42705;BME280;28342;42.594;23.414;2022-10-22T13:36:51;94924.59;;;19.40;45.73
42705;BME280;28342;42.594;23.414;2022-10-22T13:39:27;94927.81;;;19.46;45.97
42705;BME280;28342;42.594;23.414;2022-10-22T13:42:09;94968.34;;;19.72;46.98
42705;BME280;28342;42.594;23.414;2022-10-22T13:48:41;94924.97;;;19.38;47.08
42705;BME280;28342;42.594;23.414;2022-10-22T13:51:46;94957.44;;;19.65;45.49
42705;BME280;28342;42.594;23.414;2022-10-22T13:54:21;94919.00;;;19.29;45.80
42705;BME280;28342;42.594;23.414;2022-10-22T13:56:52;94917.56;;;19.16;45.35
42705;BME280;28342;42.594;23.414;2022-10-22T13:59:23;94905.38;;;19.03;45.22
42705;BME280;28342;42.594;23.414;2022-10-22T14:01:51;94957.66;;;19.40;46.05
42705;BME280;28342;42.594;23.414;2022-10-22T14:04:22;94901.00;;;19.14;46.06
42705;BME280;28342;42.594;23.414;2022-10-22T14:06:51;94950.03;;;19.42;46.59
42705;BME280;28342;42.594;23.414;2022-10-22T14:09:26;94921.19;;;19.24;46.25
42705;BME280;28342;42.594;23.414;2022-10-22T14:11:53;94914.41;;;19.30;46.08
42705;BME280;28342;42.594;23.414;2022-10-22T14:14:19;94952.63;;;19.55;45.68
42705;BME280;28342;42.594;23.414;2022-10-22T14:16:44;94956.88;;;19.56;46.11
42705;BME280;28342;42.594;23.414;2022-10-22T14:19:14;94945.84;;;19.61;47.28
42705;BME280;28342;42.594;23.414;2022-10-22T14:21:40;94966.50;;;19.57;47.84
42705;BME280;28342;42.594;23.414;2022-10-22T14:24:08;94940.56;;;19.49;47.49
42705;BME280;28342;42.594;23.414;2022-10-22T14:26:35;94947.06;;;19.48;47.43
42705;BME280;28342;42.594;23.414;2022-10-22T14:29:00;94927.16;;;19.33;48.86
42705;BME280;28342;42.594;23.414;2022-10-22T14:31:26;94921.97;;;19.24;48.76
42705;BME280;28342;42.594;23.414;2022-10-22T14:33:52;94918.59;;;19.11;49.03
42705;BME280;28342;42.594;23.414;2022-10-22T14:36:18;94942.78;;;19.27;50.26
42705;BME280;28342;42.594;23.414;2022-10-22T14:38:47;94952.09;;;19.14;51.02
42705;BME280;28342;42.594;23.414;2022-10-22T14:41:22;94937.09;;;18.97;50.90
42705;BME280;28342;42.594;23.414;2022-10-22T14:43:51;94928.56;;;18.76;51.57
42705;BME280;28342;42.594;23.414;2022-10-22T14:46:17;94921.97;;;18.58;52.05
42705;BME280;28342;42.594;23.414;2022-10-22T14:48:43;94913.72;;;18.35;52.01
42705;BME280;28342;42.594;23.414;2022-10-22T14:51:17;94943.97;;;18.47;51.59
42705;BME280;28342;42.594;23.414;2022-10-22T14:53:46;94918.28;;;18.18;52.38
42705;BME280;28342;42.594;23.414;2022-10-22T14:56:15;94948.88;;;18.30;52.78
42705;BME280;28342;42.594;23.414;2022-10-22T14:58:40;94954.56;;;18.12;52.95
42705;BME280;28342;42.594;23.414;2022-10-22T15:01:07;94938.09;;;17.98;53.23
42705;BME280;28342;42.594;23.414;2022-10-22T15:03:32;94939.34;;;17.88;54.09
42705;BME280;28342;42.594;23.414;2022-10-22T15:05:58;94952.44;;;17.90;55.00
42705;BME280;28342;42.594;23.414;2022-10-22T15:08:33;94934.84;;;17.65;55.13
42705;BME280;28342;42.594;23.414;2022-10-22T15:11:01;94934.00;;;17.48;54.17
42705;BME280;28342;42.594;23.414;2022-10-22T15:13:28;94960.34;;;17.58;55.68
42705;BME280;28342;42.594;23.414;2022-10-22T15:15:54;94951.44;;;17.42;53.71
42705;BME280;28342;42.594;23.414;2022-10-22T15:18:21;94930.78;;;17.30;55.24
42705;BME280;28342;42.594;23.414;2022-10-22T15:20:58;94936.31;;;17.22;55.04
42705;BME280;28342;42.594;23.414;2022-10-22T15:23:26;94934.50;;;17.26;54.94
42705;BME280;28342;42.594;23.414;2022-10-22T15:25:52;94949.94;;;17.17;55.58
42705;BME280;28342;42.594;23.414;2022-10-22T15:28:18;94923.84;;;17.01;55.84
42705;BME280;28342;42.594;23.414;2022-10-22T15:30:43;94945.03;;;17.07;56.39
42705;BME280;28342;42.594;23.414;2022-10-22T15:33:09;94948.41;;;17.03;56.32
42705;BME280;28342;42.594;23.414;2022-10-22T15:35:35;94961.69;;;16.88;57.20
42705;BME280;28342;42.594;23.414;2022-10-22T15:38:00;94958.91;;;16.72;56.96
42705;BME280;28342;42.594;23.414;2022-10-22T15:40:33;94942.22;;;16.66;57.59
42705;BME280;28342;42.594;23.414;2022-10-22T15:42:59;94961.28;;;16.53;56.64
42705;BME280;28342;42.594;23.414;2022-10-22T15:45:24;94959.88;;;16.55;57.68
42705;BME280;28342;42.594;23.414;2022-10-22T15:47:50;94955.31;;;16.10;58.08
42705;BME280;28342;42.594;23.414;2022-10-22T15:50:15;94942.94;;;16.18;58.13
42705;BME280;28342;42.594;23.414;2022-10-22T15:52:42;94963.28;;;16.31;58.35
42705;BME280;28342;42.594;23.414;2022-10-22T15:55:07;94954.09;;;16.20;58.77
42705;BME280;28342;42.594;23.414;2022-10-22T15:57:55;94975.31;;;16.25;58.60